sensor_id;sensor_type;location;lat;lon;timestamp;pressure;altitude;pressure_sealevel;temperature;humidity
39769;BME280;38939;47.824;14.642;2024-02-26T00:00:53;95411.00;;;4.23;73.57
39769;BME280;38939;47.824;14.642;2024-02-26T00:01:56;95415.97;;;4.18;73.69
39769;BME280;38939;47.824;14.642;2024-02-26T00:02:57;95418.97;;;4.15;73.99
39769;BME280;38939;47.824;14.642;2024-02-26T00:03:59;95408.63;;;4.15;73.60
39769;BME280;38939;47.824;14.642;2024-02-26T00:05:01;95407.03;;;4.07;73.96
39769;BME280;38939;47.824;14.642;2024-02-26T00:06:04;95407.03;;;4.07;74.09
39769;BME280;38939;47.824;14.642;2024-02-26T00:07:06;95411.78;;;4.04;74.21
39769;BME280;38939;47.824;14.642;2024-02-26T00:08:08;95402.66;;;4.01;74.17
39769;BME280;38939;47.824;14.642;2024-02-26T00:09:10;95396.53;;;4.02;74.57
39769;BME280;38939;47.824;14.642;2024-02-26T00:10:13;95384.41;;;4.03;74.43
39769;BME280;38939;47.824;14.642;2024-02-26T00:11:15;95394.13;;;4.07;74.47
39769;BME280;38939;47.824;14.642;2024-02-26T00:12:16;95386.00;;;4.10;74.22
39769;BME280;38939;47.824;14.642;2024-02-26T00:13:18;95386.38;;;4.14;74.09
39769;BME280;38939;47.824;14.642;2024-02-26T00:14:21;95391.75;;;4.19;74.23
39769;BME280;38939;47.824;14.642;2024-02-26T00:15:23;95389.56;;;4.16;74.03
39769;BME280;38939;47.824;14.642;2024-02-26T00:16:26;95384.03;;;4.12;74.15
39769;BME280;38939;47.824;14.642;2024-02-26T00:17:28;95379.66;;;4.13;74.13
39769;BME280;38939;47.824;14.642;2024-02-26T00:18:30;95387.97;;;4.15;74.10
39769;BME280;38939;47.824;14.642;2024-02-26T00:19:34;95384.78;;;4.19;73.94
39769;BME280;38939;47.824;14.642;2024-02-26T00:20:36;95392.34;;;4.21;73.80
39769;BME280;38939;47.824;14.642;2024-02-26T00:21:41;95383.59;;;4.15;73.40
39769;BME280;38939;47.824;14.642;2024-02-26T00:22:46;95389.19;;;4.12;73.53
39769;BME280;38939;47.824;14.642;2024-02-26T00:23:52;95386.00;;;4.10;73.36
39769;BME280;38939;47.824;14.642;2024-02-26T00:24:55;95387.97;;;4.15;73.73
39769;BME280;38939;47.824;14.642;2024-02-26T00:25:57;95387.97;;;4.15;73.91
39769;BME280;38939;47.824;14.642;2024-02-26T00:26:59;95386.19;;;4.15;74.29
39769;BME280;38939;47.824;14.642;2024-02-26T00:28:01;95383.22;;;4.18;74.53
39769;BME280;38939;47.824;14.642;2024-02-26T00:29:03;95386.41;;;4.20;74.89
39769;BME280;38939;47.824;14.642;2024-02-26T00:30:05;95395.53;;;4.23;74.59
39769;BME280;38939;47.824;14.642;2024-02-26T00:31:07;95390.97;;;4.18;75.26
39769;BME280;38939;47.824;14.642;2024-02-26T00:32:09;95389.38;;;4.11;75.49
39769;BME280;38939;47.824;14.642;2024-02-26T00:33:11;95391.75;;;4.12;75.16
39769;BME280;38939;47.824;14.642;2024-02-26T00:34:14;95398.13;;;4.16;75.53
39769;BME280;38939;47.824;14.642;2024-02-26T00:35:16;95396.09;;;4.12;75.45
39769;BME280;38939;47.824;14.642;2024-02-26T00:36:18;95386.00;;;4.10;75.55
39769;BME280;38939;47.824;14.642;2024-02-26T00:37:20;95387.38;;;4.13;75.21
39769;BME280;38939;47.824;14.642;2024-02-26T00:38:22;95384.81;;;4.13;74.64
39769;BME280;38939;47.824;14.642;2024-02-26T00:39:24;95375.09;;;4.08;74.76
39769;BME280;38939;47.824;14.642;2024-02-26T00:40:26;95382.22;;;4.13;74.57
39769;BME280;38939;47.824;14.642;2024-02-26T00:41:29;95381.63;;;4.17;74.42
39769;BME280;38939;47.824;14.642;2024-02-26T00:42:31;95390.75;;;4.20;74.49
39769;BME280;38939;47.824;14.642;2024-02-26T00:43:33;95376.47;;;4.17;74.61
39769;BME280;38939;47.824;14.642;2024-02-26T00:44:34;95387.78;;;4.03;74.56
39769;BME280;38939;47.824;14.642;2024-02-26T00:45:36;95376.69;;;3.96;74.73
39769;BME280;38939;47.824;14.642;2024-02-26T00:46:38;95379.84;;;3.98;75.11
39769;BME280;38939;47.824;14.642;2024-02-26T00:47:40;95374.09;;;3.96;75.55
39769;BME280;38939;47.824;14.642;2024-02-26T00:48:43;95374.47;;;3.86;75.55
39769;BME280;38939;47.824;14.642;2024-02-26T00:49:45;95376.06;;;3.80;76.05
39769;BME280;38939;47.824;14.642;2024-02-26T00:50:47;95371.28;;;3.77;75.90
39769;BME280;38939;47.824;14.642;2024-02-26T00:51:49;95375.06;;;3.75;76.09
39769;BME280;38939;47.824;14.642;2024-02-26T00:52:50;95368.69;;;3.77;76.19
39769;BME280;38939;47.824;14.642;2024-02-26T00:53:52;95374.06;;;3.69;76.21
39769;BME280;38939;47.824;14.642;2024-02-26T00:54:54;95368.09;;;3.62;76.27
39769;BME280;38939;47.824;14.642;2024-02-26T00:55:56;95364.91;;;3.53;76.88
39769;BME280;38939;47.824;14.642;2024-02-26T00:56:58;95364.09;;;3.46;76.80
39769;BME280;38939;47.824;14.642;2024-02-26T00:58:00;95364.47;;;3.43;77.66
39769;BME280;38939;47.824;14.642;2024-02-26T00:59:01;95363.31;;;3.46;77.52
39769;BME280;38939;47.824;14.642;2024-02-26T01:00:04;95365.91;;;3.52;77.58
39769;BME280;38939;47.824;14.642;2024-02-26T01:01:06;95362.72;;;3.57;76.80
39769;BME280;38939;47.824;14.642;2024-02-26T01:02:08;95359.16;;;3.65;76.76
39769;BME280;38939;47.824;14.642;2024-02-26T01:03:09;95367.13;;;3.70;76.17
39769;BME280;38939;47.824;14.642;2024-02-26T01:04:12;95370.91;;;3.74;75.95
39769;BME280;38939;47.824;14.642;2024-02-26T01:05:14;95358.56;;;3.69;75.85
39769;BME280;38939;47.824;14.642;2024-02-26T01:06:18;95362.56;;;3.72;75.61
39769;BME280;38939;47.824;14.642;2024-02-26T01:07:20;95361.38;;;3.74;75.38
39769;BME280;38939;47.824;14.642;2024-02-26T01:08:22;95364.94;;;3.73;75.58
39769;BME280;38939;47.824;14.642;2024-02-26T01:09:24;95360.97;;;3.64;75.80
39769;BME280;38939;47.824;14.642;2024-02-26T01:10:25;95356.59;;;3.58;76.08
39769;BME280;38939;47.824;14.642;2024-02-26T01:11:27;95355.00;;;3.57;76.17
39769;BME280;38939;47.824;14.642;2024-02-26T01:12:29;95351.44;;;3.58;76.14
39769;BME280;38939;47.824;14.642;2024-02-26T01:13:31;95353.00;;;3.59;76.17
39769;BME280;38939;47.824;14.642;2024-02-26T01:14:33;95345.47;;;3.57;76.01
39769;BME280;38939;47.824;14.642;2024-02-26T01:15:35;95343.88;;;3.56;76.38
39769;BME280;38939;47.824;14.642;2024-02-26T01:16:37;95340.13;;;3.59;76.35
39769;BME280;38939;47.824;14.642;2024-02-26T01:17:39;95343.09;;;3.56;76.43
39769;BME280;38939;47.824;14.642;2024-02-26T01:18:41;95345.69;;;3.56;76.18
39769;BME280;38939;47.824;14.642;2024-02-26T01:19:43;95339.50;;;3.57;76.18
39769;BME280;38939;47.824;14.642;2024-02-26T01:20:45;95343.47;;;3.59;75.89
39769;BME280;38939;47.824;14.642;2024-02-26T01:21:47;95342.91;;;3.64;75.92
39769;BME280;38939;47.824;14.642;2024-02-26T01:22:49;95338.72;;;3.63;75.52
39769;BME280;38939;47.824;14.642;2024-02-26T01:23:50;95348.66;;;3.66;75.69
39769;BME280;38939;47.824;14.642;2024-02-26T01:24:52;95342.50;;;3.67;75.50
39769;BME280;38939;47.824;14.642;2024-02-26T01:25:54;95342.91;;;3.71;75.69
39769;BME280;38939;47.824;14.642;2024-02-26T01:26:56;95339.13;;;3.73;75.65
39769;BME280;38939;47.824;14.642;2024-02-26T01:27:58;95340.94;;;3.73;75.54
39769;BME280;38939;47.824;14.642;2024-02-26T01:29:00;95344.69;;;3.70;75.49
39769;BME280;38939;47.824;14.642;2024-02-26T01:30:02;95339.13;;;3.67;75.50
39769;BME280;38939;47.824;14.642;2024-02-26T01:31:05;95337.16;;;3.62;75.78
39769;BME280;38939;47.824;14.642;2024-02-26T01:32:09;95339.13;;;3.60;75.89
39769;BME280;38939;47.824;14.642;2024-02-26T01:33:11;95341.13;;;3.58;75.77
39769;BME280;38939;47.824;14.642;2024-02-26T01:34:13;95330.81;;;3.58;76.05
39769;BME280;38939;47.824;14.642;2024-02-26T01:35:16;95334.56;;;3.62;76.39
39769;BME280;38939;47.824;14.642;2024-02-26T01:36:18;95326.66;;;3.64;75.88
39769;BME280;38939;47.824;14.642;2024-02-26T01:37:20;95330.22;;;3.63;76.04
39769;BME280;38939;47.824;14.642;2024-02-26T01:38:22;95333.56;;;3.63;76.01
39769;BME280;38939;47.824;14.642;2024-02-26T01:39:23;95331.22;;;3.62;76.00
39769;BME280;38939;47.824;14.642;2024-02-26T01:40:28;95333.38;;;3.58;76.21
39769;BME280;38939;47.824;14.642;2024-02-26T01:41:31;95332.78;;;3.56;76.21
39769;BME280;38939;47.824;14.642;2024-02-26T01:42:32;95331.19;;;3.55;76.40
39769;BME280;38939;47.824;14.642;2024-02-26T01:43:34;95332.38;;;3.59;76.07
39769;BME280;38939;47.824;14.642;2024-02-26T01:44:36;95325.06;;;3.56;76.08
39769;BME280;38939;47.824;14.642;2024-02-26T01:45:39;95325.25;;;3.54;76.42
39769;BME280;38939;47.824;14.642;2024-02-26T01:46:41;95322.66;;;3.54;75.84
39769;BME280;38939;47.824;14.642;2024-02-26T01:47:43;95321.47;;;3.57;76.08
39769;BME280;38939;47.824;14.642;2024-02-26T01:48:51;95319.88;;;3.56;75.69
39769;BME280;38939;47.824;14.642;2024-02-26T01:49:53;95316.72;;;3.54;75.75
39769;BME280;38939;47.824;14.642;2024-02-26T01:50:55;95324.63;;;3.59;76.41
39769;BME280;38939;47.824;14.642;2024-02-26T01:51:57;95319.06;;;3.55;75.87
39769;BME280;38939;47.824;14.642;2024-02-26T01:53:00;95319.28;;;3.54;76.04
39769;BME280;38939;47.824;14.642;2024-02-26T01:54:02;95313.91;;;3.55;76.10
39769;BME280;38939;47.824;14.642;2024-02-26T01:55:05;95302.22;;;3.53;76.31
39769;BME280;38939;47.824;14.642;2024-02-26T01:56:07;95299.03;;;3.51;76.40
39769;BME280;38939;47.824;14.642;2024-02-26T01:57:09;95305.78;;;3.45;76.79
39769;BME280;38939;47.824;14.642;2024-02-26T01:58:12;95304.22;;;3.44;76.99
39769;BME280;38939;47.824;14.642;2024-02-26T01:59:14;95301.81;;;3.43;77.30
39769;BME280;38939;47.824;14.642;2024-02-26T02:00:16;95294.31;;;3.48;76.97
39769;BME280;38939;47.824;14.642;2024-02-26T02:01:20;95295.28;;;3.53;77.44
39769;BME280;38939;47.824;14.642;2024-02-26T02:02:23;95297.06;;;3.53;77.07
39769;BME280;38939;47.824;14.642;2024-02-26T02:03:25;95304.22;;;3.51;76.85
39769;BME280;38939;47.824;14.642;2024-02-26T02:04:27;95305.00;;;3.45;76.73
39769;BME280;38939;47.824;14.642;2024-02-26T02:05:29;95303.00;;;3.40;77.08
39769;BME280;38939;47.824;14.642;2024-02-26T02:06:32;95298.66;;;3.40;77.01
39769;BME280;38939;47.824;14.642;2024-02-26T02:07:35;95294.69;;;3.45;76.82
39769;BME280;38939;47.824;14.642;2024-02-26T02:08:37;95296.66;;;3.43;76.69
39769;BME280;38939;47.824;14.642;2024-02-26T02:09:39;95301.03;;;3.35;76.79
39769;BME280;38939;47.824;14.642;2024-02-26T02:10:41;95301.03;;;3.35;76.85
39769;BME280;38939;47.824;14.642;2024-02-26T02:11:43;95306.16;;;3.29;76.96
39769;BME280;38939;47.824;14.642;2024-02-26T02:12:46;95300.00;;;3.23;77.45
39769;BME280;38939;47.824;14.642;2024-02-26T02:13:48;95297.22;;;3.25;77.22
39769;BME280;38939;47.824;14.642;2024-02-26T02:14:50;95299.84;;;3.31;77.14
39769;BME280;38939;47.824;14.642;2024-02-26T02:15:52;95304.22;;;3.37;77.23
39769;BME280;38939;47.824;14.642;2024-02-26T02:16:54;95301.41;;;3.39;76.97
39769;BME280;38939;47.824;14.642;2024-02-26T02:17:56;95307.75;;;3.43;77.21
39769;BME280;38939;47.824;14.642;2024-02-26T02:18:58;95300.25;;;3.42;77.09
39769;BME280;38939;47.824;14.642;2024-02-26T02:20:00;95302.22;;;3.39;76.43
39769;BME280;38939;47.824;14.642;2024-02-26T02:21:03;95303.19;;;3.45;76.84
39769;BME280;38939;47.824;14.642;2024-02-26T02:22:05;95302.63;;;3.50;76.47
39769;BME280;38939;47.824;14.642;2024-02-26T02:23:07;95302.22;;;3.53;76.79
39769;BME280;38939;47.824;14.642;2024-02-26T02:24:09;95306.78;;;3.57;76.39
39769;BME280;38939;47.824;14.642;2024-02-26T02:25:11;95305.03;;;3.58;76.20
39769;BME280;38939;47.824;14.642;2024-02-26T02:26:13;95307.59;;;3.58;76.05
39769;BME280;38939;47.824;14.642;2024-02-26T02:27:15;95316.91;;;3.59;75.85
39769;BME280;38939;47.824;14.642;2024-02-26T02:28:17;95306.59;;;3.52;76.32
39769;BME280;38939;47.824;14.642;2024-02-26T02:29:19;95311.56;;;3.54;76.21
39769;BME280;38939;47.824;14.642;2024-02-26T02:30:21;95307.97;;;3.48;76.24
39769;BME280;38939;47.824;14.642;2024-02-26T02:31:25;95316.91;;;3.46;76.29
39769;BME280;38939;47.824;14.642;2024-02-26T02:32:27;95314.34;;;3.46;76.29
39769;BME280;38939;47.824;14.642;2024-02-26T02:33:34;95316.69;;;3.34;76.23
39769;BME280;38939;47.824;14.642;2024-02-26T02:34:36;95307.34;;;3.26;76.84
39769;BME280;38939;47.824;14.642;2024-02-26T02:35:38;95305.16;;;3.23;77.06
39769;BME280;38939;47.824;14.642;2024-02-26T02:36:52;95306.34;;;3.20;77.34
39769;BME280;38939;47.824;14.642;2024-02-26T02:37:55;95310.31;;;3.23;77.21
39769;BME280;38939;47.824;14.642;2024-02-26T02:38:57;95315.31;;;3.31;77.23
39769;BME280;38939;47.824;14.642;2024-02-26T02:39:59;95309.16;;;3.32;76.98
39769;BME280;38939;47.824;14.642;2024-02-26T02:41:01;95307.94;;;3.35;77.30
39769;BME280;38939;47.824;14.642;2024-02-26T02:42:04;95310.94;;;3.38;77.34
39769;BME280;38939;47.824;14.642;2024-02-26T02:43:06;95301.41;;;3.32;76.92
39769;BME280;38939;47.824;14.642;2024-02-26T02:44:08;95304.16;;;3.24;76.74
39769;BME280;38939;47.824;14.642;2024-02-26T02:45:10;95302.97;;;3.20;77.15
39769;BME280;38939;47.824;14.642;2024-02-26T02:46:12;95302.56;;;3.23;77.74
39769;BME280;38939;47.824;14.642;2024-02-26T02:47:14;95305.38;;;3.28;77.41
39769;BME280;38939;47.824;14.642;2024-02-26T02:48:15;95301.81;;;3.29;77.04
39769;BME280;38939;47.824;14.642;2024-02-26T02:49:18;95302.19;;;3.33;77.09
39769;BME280;38939;47.824;14.642;2024-02-26T02:50:20;95300.63;;;3.38;77.12
39769;BME280;38939;47.824;14.642;2024-02-26T02:51:22;95302.22;;;3.39;77.15
39769;BME280;38939;47.824;14.642;2024-02-26T02:52:24;95297.63;;;3.28;76.85
39769;BME280;38939;47.824;14.642;2024-02-26T02:53:26;95302.78;;;3.28;77.25
39769;BME280;38939;47.824;14.642;2024-02-26T02:54:28;95304.16;;;3.24;77.67
39769;BME280;38939;47.824;14.642;2024-02-26T02:55:29;95298.59;;;3.14;77.70
39769;BME280;38939;47.824;14.642;2024-02-26T02:56:31;95300.56;;;3.05;78.05
39769;BME280;38939;47.824;14.642;2024-02-26T02:57:33;95300.34;;;3.07;77.67
39769;BME280;38939;47.824;14.642;2024-02-26T02:58:35;95295.59;;;3.04;78.29
39769;BME280;38939;47.824;14.642;2024-02-26T02:59:37;95304.31;;;3.03;77.88
39769;BME280;38939;47.824;14.642;2024-02-26T03:00:39;95296.63;;;3.09;78.30
39769;BME280;38939;47.824;14.642;2024-02-26T03:01:42;95302.16;;;3.13;77.67
39769;BME280;38939;47.824;14.642;2024-02-26T03:02:43;95300.19;;;3.15;77.63
39769;BME280;38939;47.824;14.642;2024-02-26T03:03:47;95300.41;;;3.20;77.47
39769;BME280;38939;47.824;14.642;2024-02-26T03:04:49;95300.41;;;3.20;76.98
39769;BME280;38939;47.824;14.642;2024-02-26T03:05:51;95299.41;;;3.21;77.16
39769;BME280;38939;47.824;14.642;2024-02-26T03:06:52;95292.84;;;3.25;77.48
39769;BME280;38939;47.824;14.642;2024-02-26T03:07:54;95304.16;;;3.24;76.96
39769;BME280;38939;47.824;14.642;2024-02-26T03:08:56;95297.03;;;3.26;76.86
39769;BME280;38939;47.824;14.642;2024-02-26T03:09:58;95291.47;;;3.23;77.23
39769;BME280;38939;47.824;14.642;2024-02-26T03:11:00;95292.66;;;3.13;77.00
39769;BME280;38939;47.824;14.642;2024-02-26T03:12:02;95288.66;;;3.11;77.10
39769;BME280;38939;47.824;14.642;2024-02-26T03:13:04;95284.72;;;3.15;77.51
39769;BME280;38939;47.824;14.642;2024-02-26T03:14:06;95296.22;;;3.19;77.84
39769;BME280;38939;47.824;14.642;2024-02-26T03:15:08;95286.72;;;3.19;77.37
39769;BME280;38939;47.824;14.642;2024-02-26T03:16:10;95290.28;;;3.18;77.52
39769;BME280;38939;47.824;14.642;2024-02-26T03:17:12;95283.56;;;3.17;77.50
39769;BME280;38939;47.824;14.642;2024-02-26T03:18:14;95286.31;;;3.23;77.46
39769;BME280;38939;47.824;14.642;2024-02-26T03:19:16;95288.91;;;3.16;76.99
39769;BME280;38939;47.824;14.642;2024-02-26T03:20:18;95288.91;;;3.16;77.55
39769;BME280;38939;47.824;14.642;2024-02-26T03:21:21;95287.09;;;3.16;77.51
39769;BME280;38939;47.824;14.642;2024-02-26T03:22:23;95287.69;;;3.18;77.50
39769;BME280;38939;47.824;14.642;2024-02-26T03:23:25;95285.53;;;3.22;76.97
39769;BME280;38939;47.824;14.642;2024-02-26T03:24:26;95287.09;;;3.23;76.87
39769;BME280;38939;47.824;14.642;2024-02-26T03:25:28;95283.16;;;3.27;77.01
39769;BME280;38939;47.824;14.642;2024-02-26T03:26:30;95287.91;;;3.24;77.17
39769;BME280;38939;47.824;14.642;2024-02-26T03:27:32;95283.16;;;3.20;76.75
39769;BME280;38939;47.824;14.642;2024-02-26T03:28:34;95288.31;;;3.20;76.52
39769;BME280;38939;47.824;14.642;2024-02-26T03:29:39;95282.94;;;3.15;76.48
39769;BME280;38939;47.824;14.642;2024-02-26T03:30:42;95274.81;;;3.12;77.06
39769;BME280;38939;47.824;14.642;2024-02-26T03:31:43;95284.72;;;3.15;77.20
39769;BME280;38939;47.824;14.642;2024-02-26T03:32:45;95286.13;;;3.17;77.22
39769;BME280;38939;47.824;14.642;2024-02-26T03:33:49;95285.13;;;3.18;77.05
39769;BME280;38939;47.824;14.642;2024-02-26T03:34:51;95289.88;;;3.15;76.69
39769;BME280;38939;47.824;14.642;2024-02-26T03:35:56;95275.41;;;3.14;76.87
39769;BME280;38939;47.824;14.642;2024-02-26T03:36:58;95282.13;;;3.15;77.35
39769;BME280;38939;47.824;14.642;2024-02-26T03:38:00;95280.75;;;3.12;77.40
39769;BME280;38939;47.824;14.642;2024-02-26T03:39:01;95277.56;;;3.04;77.38
39769;BME280;38939;47.824;14.642;2024-02-26T03:40:06;95271.97;;;2.87;77.97
39769;BME280;38939;47.824;14.642;2024-02-26T03:41:08;95268.78;;;2.78;78.33
39769;BME280;38939;47.824;14.642;2024-02-26T03:42:10;95268.59;;;2.79;78.74
39769;BME280;38939;47.824;14.642;2024-02-26T03:43:12;95279.50;;;2.82;78.34
39769;BME280;38939;47.824;14.642;2024-02-26T03:44:14;95273.16;;;2.84;78.73
39769;BME280;38939;47.824;14.642;2024-02-26T03:45:17;95275.72;;;2.84;78.25
39769;BME280;38939;47.824;14.642;2024-02-26T03:46:19;95276.50;;;2.78;78.64
39769;BME280;38939;47.824;14.642;2024-02-26T03:47:21;95268.53;;;2.66;78.77
39769;BME280;38939;47.824;14.642;2024-02-26T03:48:23;95270.50;;;2.57;79.56
39769;BME280;38939;47.824;14.642;2024-02-26T03:49:25;95275.81;;;2.49;80.18
39769;BME280;38939;47.824;14.642;2024-02-26T03:50:27;95276.59;;;2.50;79.92
39769;BME280;38939;47.824;14.642;2024-02-26T03:51:29;95279.59;;;2.53;79.90
39769;BME280;38939;47.824;14.642;2024-02-26T03:52:33;95276.22;;;2.53;79.82
39769;BME280;38939;47.824;14.642;2024-02-26T03:53:35;95283.53;;;2.49;80.37
39769;BME280;38939;47.824;14.642;2024-02-26T03:54:37;95273.22;;;2.49;80.72
39769;BME280;38939;47.824;14.642;2024-02-26T03:55:39;95273.84;;;2.51;80.00
39769;BME280;38939;47.824;14.642;2024-02-26T03:56:43;95278.16;;;2.44;80.70
39769;BME280;38939;47.824;14.642;2024-02-26T03:57:45;95271.78;;;2.40;81.17
39769;BME280;38939;47.824;14.642;2024-02-26T03:58:47;95276.16;;;2.46;80.89
39769;BME280;38939;47.824;14.642;2024-02-26T03:59:49;95280.94;;;2.49;80.94
39769;BME280;38939;47.824;14.642;2024-02-26T04:00:50;95270.22;;;2.39;80.60
39769;BME280;38939;47.824;14.642;2024-02-26T04:01:52;95272.94;;;2.31;80.95
39769;BME280;38939;47.824;14.642;2024-02-26T04:02:54;95278.09;;;2.31;80.76
39769;BME280;38939;47.824;14.642;2024-02-26T04:03:57;95278.09;;;2.31;80.85
39769;BME280;38939;47.824;14.642;2024-02-26T04:04:59;95276.72;;;2.35;81.63
39769;BME280;38939;47.824;14.642;2024-02-26T04:06:02;95286.84;;;2.36;81.57
39769;BME280;38939;47.824;14.642;2024-02-26T04:07:04;95282.47;;;2.37;81.18
39769;BME280;38939;47.824;14.642;2024-02-26T04:08:06;95276.34;;;2.38;81.36
39769;BME280;38939;47.824;14.642;2024-02-26T04:09:09;95278.31;;;2.36;81.31
39769;BME280;38939;47.824;14.642;2024-02-26T04:10:12;95277.34;;;2.37;80.90
39769;BME280;38939;47.824;14.642;2024-02-26T04:11:14;95284.88;;;2.38;80.84
39769;BME280;38939;47.824;14.642;2024-02-26T04:12:20;95283.88;;;2.39;80.73
39769;BME280;38939;47.824;14.642;2024-02-26T04:13:22;95278.91;;;2.38;81.39
39769;BME280;38939;47.824;14.642;2024-02-26T04:14:24;95285.41;;;2.34;81.46
39769;BME280;38939;47.824;14.642;2024-02-26T04:15:26;95280.88;;;2.36;81.01
39769;BME280;38939;47.824;14.642;2024-02-26T04:16:28;95284.66;;;2.40;81.35
39769;BME280;38939;47.824;14.642;2024-02-26T04:17:29;95288.25;;;2.46;80.68
39769;BME280;38939;47.824;14.642;2024-02-26T04:18:32;95288.06;;;2.47;81.03
39769;BME280;38939;47.824;14.642;2024-02-26T04:19:34;95284.72;;;2.47;81.04
39769;BME280;38939;47.824;14.642;2024-02-26T04:20:36;95282.31;;;2.45;80.19
39769;BME280;38939;47.824;14.642;2024-02-26T04:21:40;95284.06;;;2.38;80.49
39769;BME280;38939;47.824;14.642;2024-02-26T04:22:43;95280.50;;;2.32;80.64
39769;BME280;38939;47.824;14.642;2024-02-26T04:23:45;95285.56;;;2.26;81.14
39769;BME280;38939;47.824;14.642;2024-02-26T04:24:46;95284.97;;;2.24;81.12
39769;BME280;38939;47.824;14.642;2024-02-26T04:25:48;95283.75;;;2.19;82.06
39769;BME280;38939;47.824;14.642;2024-02-26T04:26:50;95279.03;;;2.23;82.20
39769;BME280;38939;47.824;14.642;2024-02-26T04:27:52;95277.69;;;2.27;81.99
39769;BME280;38939;47.824;14.642;2024-02-26T04:28:54;95280.50;;;2.32;81.58
39769;BME280;38939;47.824;14.642;2024-02-26T04:29:55;95276.66;;;2.22;81.76
39769;BME280;38939;47.824;14.642;2024-02-26T04:30:58;95285.13;;;2.15;81.75
39769;BME280;38939;47.824;14.642;2024-02-26T04:31:59;95279.63;;;2.18;81.53
39769;BME280;38939;47.824;14.642;2024-02-26T04:33:02;95275.63;;;2.16;81.72
39769;BME280;38939;47.824;14.642;2024-02-26T04:34:04;95279.53;;;2.05;82.65
39769;BME280;38939;47.824;14.642;2024-02-26T04:35:06;95284.66;;;2.05;82.16
39769;BME280;38939;47.824;14.642;2024-02-26T04:36:12;95278.75;;;2.05;82.59
39769;BME280;38939;47.824;14.642;2024-02-26T04:37:14;95279.94;;;2.09;82.74
39769;BME280;38939;47.824;14.642;2024-02-26T04:38:16;95284.91;;;2.10;82.20
39769;BME280;38939;47.824;14.642;2024-02-26T04:39:18;95287.50;;;2.10;82.12
39769;BME280;38939;47.824;14.642;2024-02-26T04:40:20;95276.94;;;2.05;82.17
39769;BME280;38939;47.824;14.642;2024-02-26T04:41:22;95282.09;;;2.05;82.28
39769;BME280;38939;47.824;14.642;2024-02-26T04:42:24;95286.28;;;2.06;82.16
39769;BME280;38939;47.824;14.642;2024-02-26T04:43:26;95281.75;;;2.08;82.32
39769;BME280;38939;47.824;14.642;2024-02-26T04:44:27;95289.81;;;2.05;82.19
39769;BME280;38939;47.824;14.642;2024-02-26T04:45:29;95276.34;;;2.03;82.23
39769;BME280;38939;47.824;14.642;2024-02-26T04:46:31;95278.13;;;2.03;83.14
39769;BME280;38939;47.824;14.642;2024-02-26T04:47:33;95279.53;;;2.05;83.24
39769;BME280;38939;47.824;14.642;2024-02-26T04:48:35;95276.78;;;2.07;82.87
39769;BME280;38939;47.824;14.642;2024-02-26T04:49:37;95277.13;;;2.04;83.36
39769;BME280;38939;47.824;14.642;2024-02-26T04:50:39;95278.56;;;2.06;82.32
39769;BME280;38939;47.824;14.642;2024-02-26T04:51:41;95289.06;;;2.11;82.98
39769;BME280;38939;47.824;14.642;2024-02-26T04:52:43;95284.91;;;2.10;82.18
39769;BME280;38939;47.824;14.642;2024-02-26T04:53:45;95285.53;;;2.12;81.95
39769;BME280;38939;47.824;14.642;2024-02-26T04:54:47;95291.63;;;2.11;82.57
39769;BME280;38939;47.824;14.642;2024-02-26T04:55:49;95293.44;;;2.17;82.79
39769;BME280;38939;47.824;14.642;2024-02-26T04:56:51;95291.47;;;2.19;82.73
39769;BME280;38939;47.824;14.642;2024-02-26T04:57:53;95291.31;;;2.21;82.54
39769;BME280;38939;47.824;14.642;2024-02-26T04:58:54;95294.84;;;2.20;82.24
39769;BME280;38939;47.824;14.642;2024-02-26T04:59:56;95296.03;;;2.17;82.16
39769;BME280;38939;47.824;14.642;2024-02-26T05:00:58;95300.19;;;2.18;81.78
39769;BME280;38939;47.824;14.642;2024-02-26T05:02:00;95301.34;;;2.16;82.02
39769;BME280;38939;47.824;14.642;2024-02-26T05:03:02;95298.38;;;2.12;82.23
39769;BME280;38939;47.824;14.642;2024-02-26T05:04:04;95297.03;;;2.16;81.96
39769;BME280;38939;47.824;14.642;2024-02-26T05:05:06;95291.88;;;2.16;82.00
39769;BME280;38939;47.824;14.642;2024-02-26T05:06:10;95300.56;;;2.15;82.28
39769;BME280;38939;47.824;14.642;2024-02-26T05:07:12;95292.63;;;2.10;82.51
39769;BME280;38939;47.824;14.642;2024-02-26T05:08:14;95290.59;;;2.06;82.15
39769;BME280;38939;47.824;14.642;2024-02-26T05:09:16;95294.59;;;2.08;82.13
39769;BME280;38939;47.824;14.642;2024-02-26T05:10:18;95298.75;;;2.09;82.46
39769;BME280;38939;47.824;14.642;2024-02-26T05:11:20;95295.56;;;2.07;82.67
39769;BME280;38939;47.824;14.642;2024-02-26T05:12:23;95302.47;;;2.00;82.68
39769;BME280;38939;47.824;14.642;2024-02-26T05:13:25;95298.53;;;2.04;82.48
39769;BME280;38939;47.824;14.642;2024-02-26T05:14:27;95303.84;;;2.03;82.53
39769;BME280;38939;47.824;14.642;2024-02-26T05:15:29;95306.66;;;2.08;82.55
39769;BME280;38939;47.824;14.642;2024-02-26T05:16:31;95303.31;;;2.14;82.36
39769;BME280;38939;47.824;14.642;2024-02-26T05:17:33;95303.75;;;2.17;82.54
39769;BME280;38939;47.824;14.642;2024-02-26T05:18:35;95301.34;;;2.16;82.40
39769;BME280;38939;47.824;14.642;2024-02-26T05:19:37;95298.56;;;2.11;82.50
39769;BME280;38939;47.824;14.642;2024-02-26T05:20:39;95301.31;;;2.09;82.60
39769;BME280;38939;47.824;14.642;2024-02-26T05:21:41;95309.44;;;2.06;82.90
39769;BME280;38939;47.824;14.642;2024-02-26T05:22:45;95301.66;;;1.99;82.75
39769;BME280;38939;47.824;14.642;2024-02-26T05:23:48;95309.38;;;1.99;82.70
39769;BME280;38939;47.824;14.642;2024-02-26T05:24:50;95299.28;;;1.98;82.87
39769;BME280;38939;47.824;14.642;2024-02-26T05:25:53;95299.69;;;2.02;82.72
39769;BME280;38939;47.824;14.642;2024-02-26T05:26:55;95300.50;;;2.02;82.22
39769;BME280;38939;47.824;14.642;2024-02-26T05:27:57;95291.03;;;2.09;82.15
39769;BME280;38939;47.824;14.642;2024-02-26T05:28:59;95291.63;;;2.11;81.99
39769;BME280;38939;47.824;14.642;2024-02-26T05:30:01;95294.38;;;2.10;81.91